Terminal Aerodrome Forecast
Issued by NWS Greer, SC

Home | Current Version | Previous Version | Text Only | Print | Product List | Glossary On
Versions: 1 2 3 4 5 6 7 8 9 10 11 12 13 14 15 16 17 18 19 20 21 22 23 24 25 26 27 28 29 30
000
FTUS42 KGSP 080852 AAA
TAFCLT
TAF AMD
KCLT 080852Z 0809/0906 25003KT 5SM BR SCT007 OVC015
      TEMPO 0809/0811 4SM BR OVC006
     FM081400 34009G15KT P6SM OVC050
     FM082000 32009G18KT P6SM SCT150
     FM090200 33008KT P6SM SCT150=

USA.gov is the U.S. government's official web portal to all federal, state and local government web resources and services.